sensor_id;sensor_type;location;lat;lon;timestamp;temperature;humidity
31687;DHT22;18285;51.330;4.946;2022-08-21T00:19:42;25.00;49.40
31687;DHT22;18285;51.330;4.946;2022-08-21T00:43:53;25.00;49.20
31687;DHT22;18285;51.330;4.946;2022-08-21T01:08:05;25.00;48.60
31687;DHT22;18285;51.330;4.946;2022-08-21T01:32:18;25.00;48.20
31687;DHT22;18285;51.330;4.946;2022-08-21T01:56:39;25.00;48.20
31687;DHT22;18285;51.330;4.946;2022-08-21T02:20:50;25.10;47.90
31687;DHT22;18285;51.330;4.946;2022-08-21T02:45:01;25.00;47.80
31687;DHT22;18285;51.330;4.946;2022-08-21T03:09:12;25.00;47.60
31687;DHT22;18285;51.330;4.946;2022-08-21T03:33:23;25.00;47.10
31687;DHT22;18285;51.330;4.946;2022-08-21T03:57:34;25.00;46.90
31687;DHT22;18285;51.330;4.946;2022-08-21T04:21:45;24.90;46.70
31687;DHT22;18285;51.330;4.946;2022-08-21T04:45:56;24.90;46.50
31687;DHT22;18285;51.330;4.946;2022-08-21T05:10:06;24.90;46.40
31687;DHT22;18285;51.330;4.946;2022-08-21T05:34:20;24.90;46.50
31687;DHT22;18285;51.330;4.946;2022-08-21T05:58:32;24.90;46.40
31687;DHT22;18285;51.330;4.946;2022-08-21T06:22:43;24.90;46.50
31687;DHT22;18285;51.330;4.946;2022-08-21T06:46:54;24.90;46.70
31687;DHT22;18285;51.330;4.946;2022-08-21T07:11:11;24.80;47.50
31687;DHT22;18285;51.330;4.946;2022-08-21T07:35:23;24.90;47.90
31687;DHT22;18285;51.330;4.946;2022-08-21T07:59:34;24.90;48.20
31687;DHT22;18285;51.330;4.946;2022-08-21T08:23:44;24.80;49.50
31687;DHT22;18285;51.330;4.946;2022-08-21T08:48:00;24.80;50.30
31687;DHT22;18285;51.330;4.946;2022-08-21T09:12:35;24.80;50.60
31687;DHT22;18285;51.330;4.946;2022-08-21T09:36:52;24.90;50.80
31687;DHT22;18285;51.330;4.946;2022-08-21T10:01:05;24.90;50.80
31687;DHT22;18285;51.330;4.946;2022-08-21T10:25:27;25.00;50.80
31687;DHT22;18285;51.330;4.946;2022-08-21T11:14:03;25.00;50.50
31687;DHT22;18285;51.330;4.946;2022-08-21T11:38:49;25.10;50.40
31687;DHT22;18285;51.330;4.946;2022-08-21T12:02:59;25.10;50.50
31687;DHT22;18285;51.330;4.946;2022-08-21T12:51:52;25.10;49.20
31687;DHT22;18285;51.330;4.946;2022-08-21T13:16:06;25.00;48.50
31687;DHT22;18285;51.330;4.946;2022-08-21T13:40:28;24.90;48.60
31687;DHT22;18285;51.330;4.946;2022-08-21T14:04:57;24.90;48.70
31687;DHT22;18285;51.330;4.946;2022-08-21T14:29:09;24.80;48.50
31687;DHT22;18285;51.330;4.946;2022-08-21T14:53:20;24.80;48.50
31687;DHT22;18285;51.330;4.946;2022-08-21T15:17:31;24.80;48.40
31687;DHT22;18285;51.330;4.946;2022-08-21T15:41:42;24.80;48.30
31687;DHT22;18285;51.330;4.946;2022-08-21T16:05:54;24.70;48.30
31687;DHT22;18285;51.330;4.946;2022-08-21T16:30:08;24.60;48.10
31687;DHT22;18285;51.330;4.946;2022-08-21T16:54:19;24.60;48.10
31687;DHT22;18285;51.330;4.946;2022-08-21T17:18:30;24.60;48.10
31687;DHT22;18285;51.330;4.946;2022-08-21T17:42:42;24.60;48.10
31687;DHT22;18285;51.330;4.946;2022-08-21T18:06:54;24.50;48.00
31687;DHT22;18285;51.330;4.946;2022-08-21T18:31:07;24.50;47.90
31687;DHT22;18285;51.330;4.946;2022-08-21T18:55:20;24.60;48.40
31687;DHT22;18285;51.330;4.946;2022-08-21T19:19:31;24.50;48.90
31687;DHT22;18285;51.330;4.946;2022-08-21T19:43:46;24.50;49.20
31687;DHT22;18285;51.330;4.946;2022-08-21T20:07:59;24.60;49.40
31687;DHT22;18285;51.330;4.946;2022-08-21T20:32:10;24.60;49.40
31687;DHT22;18285;51.330;4.946;2022-08-21T21:21:17;24.70;49.40
31687;DHT22;18285;51.330;4.946;2022-08-21T22:09:58;24.70;49.50
31687;DHT22;18285;51.330;4.946;2022-08-21T22:34:17;24.70;49.60
31687;DHT22;18285;51.330;4.946;2022-08-21T22:58:50;24.70;49.80
31687;DHT22;18285;51.330;4.946;2022-08-21T23:23:20;24.70;50.00
